createdAt,value
2019-03-28T00:00:43.712Z,1006.32
2019-03-28T00:01:43.741Z,1006.26
2019-03-28T00:02:43.703Z,1006.22
2019-03-28T00:03:43.682Z,1006.26
2019-03-28T00:04:43.675Z,1006.22
2019-03-28T00:05:43.660Z,1006.21
2019-03-28T00:06:43.670Z,1006.21
2019-03-28T00:07:43.687Z,1006.25
2019-03-28T00:08:43.630Z,1006.23
2019-03-28T00:09:43.632Z,1006.28
2019-03-28T00:10:43.622Z,1006.25
2019-03-28T00:11:43.595Z,1006.25
2019-03-28T00:12:43.597Z,1006.27
2019-03-28T00:13:43.588Z,1006.23
2019-03-28T00:14:43.747Z,1006.27
2019-03-28T00:15:43.581Z,1006.23
2019-03-28T00:16:43.552Z,1006.21
2019-03-28T00:17:43.574Z,1006.21
2019-03-28T00:18:43.529Z,1006.29
2019-03-28T00:19:44.117Z,1006.22
2019-03-28T00:20:43.534Z,1006.22
2019-03-28T00:21:43.490Z,1006.27
2019-03-28T00:22:43.498Z,1006.22
2019-03-28T00:23:43.474Z,1006.24
2019-03-28T00:24:43.463Z,1006.10
2019-03-28T00:25:43.470Z,1006.16
2019-03-28T00:26:43.485Z,1006.08
2019-03-28T00:27:43.458Z,1006.13
2019-03-28T00:28:43.418Z,1006.06
2019-03-28T00:29:43.413Z,1006.06
2019-03-28T00:30:43.431Z,1006.09
2019-03-28T00:31:43.400Z,1006.10
2019-03-28T00:32:43.376Z,1006.04
2019-03-28T00:33:43.398Z,1006.02
2019-03-28T00:34:43.354Z,1006.02
2019-03-28T00:35:43.342Z,1006.03
2019-03-28T00:36:43.343Z,1006.02
2019-03-28T00:37:43.323Z,1006.03
2019-03-28T00:38:43.332Z,1006.07
2019-03-28T00:39:43.337Z,1006.10
2019-03-28T00:40:43.287Z,1006.03
2019-03-28T00:41:43.279Z,1006.09
2019-03-28T00:42:43.267Z,1006.10
2019-03-28T00:43:43.273Z,1006.13
2019-03-28T00:44:43.255Z,1006.02
2019-03-28T00:45:44.558Z,1006.11
2019-03-28T00:46:43.225Z,1006.10
2019-03-28T00:47:43.218Z,1006.10
2019-03-28T00:48:43.219Z,1006.11
2019-03-28T00:49:43.262Z,1006.03
2019-03-28T00:50:43.190Z,1006.02
2019-03-28T00:51:43.441Z,1006.05
2019-03-28T00:52:43.223Z,1006.01
2019-03-28T00:53:43.204Z,1006.02
2019-03-28T00:54:43.141Z,1006.00
2019-03-28T00:55:43.128Z,1005.99
2019-03-28T00:56:47.150Z,1006.01
2019-03-28T00:57:43.107Z,1006.04
2019-03-28T00:58:43.118Z,1006.03
2019-03-28T00:59:43.124Z,1006.02
2019-03-28T01:00:43.113Z,1005.99
2019-03-28T01:01:43.066Z,1006.04
2019-03-28T01:02:43.055Z,1006.00
2019-03-28T01:03:43.086Z,1006.04
2019-03-28T01:04:43.032Z,1006.04
2019-03-28T01:05:43.024Z,1006.04
2019-03-28T01:06:43.033Z,1005.99
2019-03-28T01:07:43.028Z,1005.99
2019-03-28T01:08:43.147Z,1005.99
2019-03-28T01:09:43.021Z,1006.06
2019-03-28T01:10:42.973Z,1006.01
2019-03-28T01:11:42.987Z,1006.01
2019-03-28T01:12:42.976Z,1006.10
2019-03-28T01:13:43.282Z,1006.04
2019-03-28T01:14:42.986Z,1006.10
2019-03-28T01:15:42.914Z,1006.06
2019-03-28T01:16:42.909Z,1006.06
2019-03-28T01:17:43.024Z,1006.10
2019-03-28T01:18:42.935Z,1006.02
2019-03-28T01:19:42.890Z,1006.01
2019-03-28T01:20:42.897Z,1006.05
2019-03-28T01:21:42.877Z,1006.06
2019-03-28T01:22:42.867Z,1006.00
2019-03-28T01:23:42.922Z,1006.05
2019-03-28T01:24:42.827Z,1006.07
2019-03-28T01:25:42.811Z,1006.01
2019-03-28T01:26:51.799Z,1006.02
2019-03-28T01:27:43.795Z,1006.03
2019-03-28T01:28:42.810Z,1006.07
2019-03-28T01:29:42.780Z,1005.98
2019-03-28T01:30:42.758Z,1006.04
2019-03-28T01:31:42.747Z,1006.10
2019-03-28T01:32:42.765Z,1006.14
2019-03-28T01:33:43.161Z,1006.11
2019-03-28T01:34:42.733Z,1006.04
2019-03-28T01:35:42.705Z,1006.07
2019-03-28T01:36:42.722Z,1006.13
2019-03-28T01:37:42.690Z,1006.01
2019-03-28T01:38:42.710Z,1006.00
2019-03-28T01:39:42.680Z,1005.99
2019-03-28T01:40:42.655Z,1006.00
2019-03-28T01:41:42.644Z,1005.96
2019-03-28T01:42:42.637Z,1006.00
2019-03-28T01:43:42.627Z,1005.94
2019-03-28T01:44:43.110Z,1005.93
2019-03-28T01:45:42.606Z,1005.94
2019-03-28T01:46:42.618Z,1005.92
2019-03-28T01:47:43.166Z,1005.95
2019-03-28T01:48:42.577Z,1005.95
2019-03-28T01:49:42.571Z,1005.95
2019-03-28T01:50:42.553Z,1006.03
2019-03-28T01:51:42.612Z,1005.94
2019-03-28T01:52:42.553Z,1005.98
2019-03-28T01:53:42.535Z,1006.00
2019-03-28T01:54:42.539Z,1005.94
2019-03-28T01:55:42.500Z,1005.99
2019-03-28T01:56:42.487Z,1005.99
2019-03-28T01:57:42.486Z,1005.96
2019-03-28T01:58:42.470Z,1006.05
2019-03-28T01:59:42.468Z,1006.01
2019-03-28T02:00:42.589Z,1006.01
2019-03-28T02:01:42.438Z,1005.98
2019-03-28T02:02:42.442Z,1005.98
2019-03-28T02:03:42.422Z,1005.98
2019-03-28T02:04:42.420Z,1006.01
2019-03-28T02:05:42.928Z,1006.05
2019-03-28T02:06:42.409Z,1006.06
2019-03-28T02:07:42.376Z,1006.07
2019-03-28T02:08:42.366Z,1006.06
2019-03-28T02:09:42.365Z,1006.07
2019-03-28T02:10:42.349Z,1006.03
2019-03-28T02:11:42.333Z,1006.12
2019-03-28T02:12:42.344Z,1006.07
2019-03-28T02:13:42.312Z,1006.11
2019-03-28T02:14:42.331Z,1006.17
2019-03-28T02:15:42.293Z,1006.12
2019-03-28T02:16:42.278Z,1006.10
2019-03-28T02:17:42.268Z,1006.06
2019-03-28T02:18:42.297Z,1006.10
2019-03-28T02:19:42.263Z,1006.09
2019-03-28T02:20:42.244Z,1006.11
2019-03-28T02:21:42.246Z,1006.19
2019-03-28T02:22:42.223Z,1006.06
2019-03-28T02:23:42.207Z,1006.02
2019-03-28T02:24:42.245Z,1006.05
2019-03-28T02:25:42.187Z,1006.07
2019-03-28T02:26:42.180Z,1006.05
2019-03-28T02:27:42.165Z,1006.01
2019-03-28T02:28:42.158Z,1006.06
2019-03-28T02:29:42.158Z,1006.11
2019-03-28T02:30:42.166Z,1005.99
2019-03-28T02:31:42.948Z,1005.98
2019-03-28T02:32:42.117Z,1005.97
2019-03-28T02:33:42.100Z,1005.96
2019-03-28T02:34:42.119Z,1006.00
2019-03-28T02:35:42.082Z,1006.02
2019-03-28T02:36:42.115Z,1006.05
2019-03-28T02:37:42.059Z,1006.01
2019-03-28T02:38:42.053Z,1006.07
2019-03-28T02:39:42.075Z,1006.04
2019-03-28T02:40:42.648Z,1006.06
2019-03-28T02:41:42.018Z,1006.07
2019-03-28T02:42:42.037Z,1005.99
2019-03-28T02:43:42.034Z,1006.04
2019-03-28T02:44:41.998Z,1006.00
2019-03-28T02:45:41.974Z,1006.00
2019-03-28T02:46:41.966Z,1005.96
2019-03-28T02:47:41.957Z,1005.97
2019-03-28T02:48:41.945Z,1005.91
2019-03-28T02:49:41.999Z,1005.91
2019-03-28T02:50:41.927Z,1005.90
2019-03-28T02:51:41.913Z,1005.90
2019-03-28T02:52:41.904Z,1005.90
2019-03-28T02:53:41.904Z,1005.97
2019-03-28T02:54:41.898Z,1005.96
2019-03-28T02:55:41.933Z,1005.95
2019-03-28T02:56:42.147Z,1005.95
2019-03-28T02:57:43.718Z,1005.93
2019-03-28T02:58:41.846Z,1006.04
2019-03-28T02:59:41.872Z,1006.00
2019-03-28T03:00:41.818Z,1006.04
2019-03-28T03:01:41.808Z,1006.01
2019-03-28T03:02:41.848Z,1006.02
2019-03-28T03:03:41.792Z,1006.03
2019-03-28T03:04:41.799Z,1006.01
2019-03-28T03:05:41.770Z,1006.05
2019-03-28T03:06:41.770Z,1006.04
2019-03-28T03:07:42.046Z,1005.99
2019-03-28T03:08:41.776Z,1006.05
2019-03-28T03:09:41.741Z,1006.01
2019-03-28T03:10:41.721Z,1005.94
2019-03-28T03:11:42.979Z,1005.98
2019-03-28T03:12:41.702Z,1006.03
2019-03-28T03:13:41.694Z,1006.03
2019-03-28T03:14:41.735Z,1006.05
2019-03-28T03:15:41.662Z,1006.08
2019-03-28T03:16:41.677Z,1006.03
2019-03-28T03:17:41.935Z,1005.99
2019-03-28T03:18:41.635Z,1006.01
2019-03-28T03:19:41.644Z,1006.02
2019-03-28T03:20:41.623Z,1005.99
2019-03-28T03:21:41.649Z,1005.91
2019-03-28T03:22:41.598Z,1005.91
2019-03-28T03:23:41.584Z,1005.92
2019-03-28T03:24:41.573Z,1005.92
2019-03-28T03:25:41.601Z,1005.92
2019-03-28T03:26:41.563Z,1005.90
2019-03-28T03:27:57.195Z,1005.83
2019-03-28T03:28:42.529Z,1005.91
2019-03-28T03:29:41.518Z,1005.86
2019-03-28T03:30:41.523Z,1005.88
2019-03-28T03:31:41.496Z,1005.86
2019-03-28T03:32:41.490Z,1005.83
2019-03-28T03:33:41.650Z,1005.90
2019-03-28T03:34:41.470Z,1005.84
2019-03-28T03:35:41.482Z,1005.87
2019-03-28T03:36:41.447Z,1005.83
2019-03-28T03:37:41.459Z,1005.88
2019-03-28T03:38:41.425Z,1005.91
2019-03-28T03:39:41.465Z,1005.91
2019-03-28T03:40:41.436Z,1005.89
2019-03-28T03:41:41.393Z,1005.86
2019-03-28T03:42:41.381Z,1005.83
2019-03-28T03:43:41.371Z,1005.88
2019-03-28T03:44:42.162Z,1005.81
2019-03-28T03:45:41.414Z,1005.80
2019-03-28T03:46:41.443Z,1005.86
2019-03-28T03:47:41.327Z,1005.87
2019-03-28T03:48:41.318Z,1005.84
2019-03-28T03:49:41.313Z,1005.91
2019-03-28T03:50:41.305Z,1005.89
2019-03-28T03:51:41.328Z,1005.90
2019-03-28T03:52:41.658Z,1005.88
2019-03-28T03:53:41.273Z,1005.90
2019-03-28T03:54:41.277Z,1005.90
2019-03-28T03:55:41.281Z,1005.93
2019-03-28T03:56:41.237Z,1005.96
2019-03-28T03:57:41.279Z,1005.97
2019-03-28T03:58:41.219Z,1005.96
2019-03-28T03:59:41.238Z,1005.97
2019-03-28T04:00:41.232Z,1005.97
2019-03-28T04:01:41.204Z,1006.02
2019-03-28T04:02:41.177Z,1006.04
2019-03-28T04:03:41.289Z,1006.05
2019-03-28T04:04:41.152Z,1006.00
2019-03-28T04:05:41.159Z,1005.99
2019-03-28T04:06:41.135Z,1006.04
2019-03-28T04:07:41.131Z,1005.99
2019-03-28T04:08:41.113Z,1006.05
2019-03-28T04:09:41.451Z,1006.05
2019-03-28T04:10:41.151Z,1006.06
2019-03-28T04:11:41.081Z,1006.04
2019-03-28T04:12:41.080Z,1006.02
2019-03-28T04:13:41.067Z,1005.99
2019-03-28T04:14:41.050Z,1005.98
2019-03-28T04:15:41.045Z,1006.01
2019-03-28T04:16:41.135Z,1006.00
2019-03-28T04:17:41.023Z,1006.03
2019-03-28T04:18:41.003Z,1005.93
2019-03-28T04:19:40.994Z,1005.98
2019-03-28T04:20:40.983Z,1005.98
2019-03-28T04:21:40.988Z,1006.01
2019-03-28T04:22:41.011Z,1006.01
2019-03-28T04:23:40.957Z,1006.08
2019-03-28T04:24:40.943Z,1006.02
2019-03-28T04:25:40.939Z,1006.02
2019-03-28T04:26:40.936Z,1006.02
2019-03-28T04:27:40.948Z,1005.93
2019-03-28T04:28:40.903Z,1006.06
2019-03-28T04:29:40.893Z,1006.04
2019-03-28T04:30:40.883Z,1005.98
2019-03-28T04:31:40.885Z,1005.99
2019-03-28T04:32:40.873Z,1006.01
2019-03-28T04:33:40.894Z,1006.03
2019-03-28T04:34:40.852Z,1005.95
2019-03-28T04:35:40.832Z,1006.06
2019-03-28T04:36:41.186Z,1005.99
2019-03-28T04:37:40.839Z,1006.02
2019-03-28T04:38:40.810Z,1006.01
2019-03-28T04:39:40.796Z,1006.00
2019-03-28T04:40:40.775Z,1006.07
2019-03-28T04:41:40.915Z,1006.12
2019-03-28T04:42:40.773Z,1006.16
2019-03-28T04:43:40.758Z,1006.10
2019-03-28T04:44:40.738Z,1006.12
2019-03-28T04:45:40.724Z,1006.16
2019-03-28T04:46:40.739Z,1006.09
2019-03-28T04:47:40.766Z,1006.17
2019-03-28T04:48:40.697Z,1006.16
2019-03-28T04:49:40.695Z,1006.19
2019-03-28T04:50:40.675Z,1006.22
2019-03-28T04:51:40.695Z,1006.24
2019-03-28T04:52:40.657Z,1006.26
2019-03-28T04:53:40.679Z,1006.27
2019-03-28T04:54:40.644Z,1006.21
2019-03-28T04:55:40.621Z,1006.22
2019-03-28T04:56:40.611Z,1006.21
2019-03-28T04:57:41.229Z,1006.25
2019-03-28T04:58:44.784Z,1006.27
2019-03-28T04:59:41.383Z,1006.25
2019-03-28T05:00:40.572Z,1006.23
2019-03-28T05:01:40.593Z,1006.29
2019-03-28T05:02:40.560Z,1006.27
2019-03-28T05:03:40.571Z,1006.29
2019-03-28T05:04:40.740Z,1006.24
2019-03-28T05:05:40.578Z,1006.23
2019-03-28T05:06:40.511Z,1006.30
2019-03-28T05:07:40.510Z,1006.39
2019-03-28T05:08:40.488Z,1006.32
2019-03-28T05:09:40.478Z,1006.35
2019-03-28T05:10:41.545Z,1006.32
2019-03-28T05:11:40.519Z,1006.30
2019-03-28T05:12:40.462Z,1006.30
2019-03-28T05:13:40.446Z,1006.35
2019-03-28T05:14:40.577Z,1006.38
2019-03-28T05:15:40.418Z,1006.36
2019-03-28T05:16:40.430Z,1006.44
2019-03-28T05:17:40.726Z,1006.35
2019-03-28T05:18:40.415Z,1006.34
2019-03-28T05:19:40.393Z,1006.40
2019-03-28T05:20:40.526Z,1006.40
2019-03-28T05:21:40.364Z,1006.38
2019-03-28T05:22:40.363Z,1006.36
2019-03-28T05:23:40.582Z,1006.38
2019-03-28T05:24:40.361Z,1006.42
2019-03-28T05:25:40.319Z,1006.45
2019-03-28T05:26:41.268Z,1006.42
2019-03-28T05:27:40.303Z,1006.39
2019-03-28T05:28:40.296Z,1006.44
2019-03-28T05:29:40.275Z,1006.48
2019-03-28T05:30:40.289Z,1006.39
2019-03-28T05:31:40.307Z,1006.46
2019-03-28T05:32:40.254Z,1006.48
2019-03-28T05:33:40.231Z,1006.49
2019-03-28T05:34:40.372Z,1006.46
2019-03-28T05:35:40.242Z,1006.47
2019-03-28T05:36:40.213Z,1006.48
2019-03-28T05:37:40.212Z,1006.42
2019-03-28T05:38:40.212Z,1006.46
2019-03-28T05:39:40.235Z,1006.47
2019-03-28T05:40:40.182Z,1006.41
2019-03-28T05:41:40.152Z,1006.49
2019-03-28T05:42:40.194Z,1006.49
2019-03-28T05:43:40.152Z,1006.48
2019-03-28T05:44:40.122Z,1006.49
2019-03-28T05:45:40.126Z,1006.50
2019-03-28T05:46:40.142Z,1006.53
2019-03-28T05:47:40.108Z,1006.47
2019-03-28T05:48:40.077Z,1006.52
2019-03-28T05:49:40.170Z,1006.59
2019-03-28T05:50:40.059Z,1006.56
2019-03-28T05:51:40.047Z,1006.61
2019-03-28T05:52:40.346Z,1006.67
2019-03-28T05:53:40.074Z,1006.66
2019-03-28T05:54:40.027Z,1006.67
2019-03-28T05:55:40.019Z,1006.69
2019-03-28T05:56:39.998Z,1006.69
2019-03-28T05:57:40.022Z,1006.68
2019-03-28T05:58:40.008Z,1006.67
2019-03-28T05:59:39.969Z,1006.71
2019-03-28T06:00:40.366Z,1006.68
2019-03-28T06:01:39.946Z,1006.66
2019-03-28T06:02:39.949Z,1006.66
2019-03-28T06:03:39.959Z,1006.67
2019-03-28T06:04:39.916Z,1006.66
2019-03-28T06:05:39.909Z,1006.64
2019-03-28T06:06:39.950Z,1006.70
2019-03-28T06:07:39.888Z,1006.72
2019-03-28T06:08:39.888Z,1006.73
2019-03-28T06:09:40.306Z,1006.69
2019-03-28T06:10:39.858Z,1006.72
2019-03-28T06:11:39.841Z,1006.69
2019-03-28T06:12:39.859Z,1006.83
2019-03-28T06:13:39.835Z,1006.71
2019-03-28T06:14:39.817Z,1006.80
2019-03-28T06:15:41.164Z,1006.83
2019-03-28T06:16:39.816Z,1006.78
2019-03-28T06:17:39.777Z,1006.79
2019-03-28T06:18:39.828Z,1006.74
2019-03-28T06:19:39.760Z,1006.82
2019-03-28T06:20:39.756Z,1006.79
2019-03-28T06:21:39.924Z,1006.75
2019-03-28T06:22:39.870Z,1006.76
2019-03-28T06:23:39.738Z,1006.75
2019-03-28T06:24:39.705Z,1006.73
2019-03-28T06:25:41.026Z,1006.71
2019-03-28T06:26:39.687Z,1006.69
2019-03-28T06:27:39.673Z,1006.71
2019-03-28T06:28:39.674Z,1006.73
2019-03-28T06:29:39.652Z,1006.68
2019-03-28T06:30:39.642Z,1006.65
2019-03-28T06:31:39.647Z,1006.65
2019-03-28T06:32:43.333Z,1006.63
2019-03-28T06:33:39.621Z,1006.73
2019-03-28T06:34:39.602Z,1006.67
2019-03-28T06:35:39.623Z,1006.69
2019-03-28T06:36:40.403Z,1006.57
2019-03-28T06:37:39.588Z,1006.61
2019-03-28T06:38:39.581Z,1006.58
2019-03-28T06:39:39.591Z,1006.59
2019-03-28T06:40:39.584Z,1006.57
2019-03-28T06:41:39.555Z,1006.53
2019-03-28T06:42:39.579Z,1006.55
2019-03-28T06:43:41.955Z,1006.49
2019-03-28T06:44:39.518Z,1006.56
2019-03-28T06:45:39.484Z,1006.54
2019-03-28T06:46:39.477Z,1006.46
2019-03-28T06:47:39.463Z,1006.53
2019-03-28T06:48:39.477Z,1006.54
2019-03-28T06:49:39.467Z,1006.47
2019-03-28T06:50:39.456Z,1006.51
2019-03-28T06:51:39.424Z,1006.47
2019-03-28T06:52:39.422Z,1006.44
2019-03-28T06:53:39.411Z,1006.39
2019-03-28T06:54:39.394Z,1006.47
2019-03-28T06:55:39.386Z,1006.40
2019-03-28T06:56:39.392Z,1006.40
2019-03-28T06:57:39.373Z,1006.41
2019-03-28T06:58:39.398Z,1006.50
2019-03-28T06:59:39.335Z,1006.41
2019-03-28T07:00:39.330Z,1006.46
2019-03-28T07:01:39.319Z,1006.40
2019-03-28T07:02:39.303Z,1006.38
2019-03-28T07:03:39.312Z,1006.37
2019-03-28T07:04:39.320Z,1006.37
2019-03-28T07:05:39.322Z,1006.45
2019-03-28T07:06:39.352Z,1006.41
2019-03-28T07:07:39.251Z,1006.39
2019-03-28T07:08:39.272Z,1006.39
2019-03-28T07:09:39.231Z,1006.35
2019-03-28T07:10:39.250Z,1006.39
2019-03-28T07:11:39.210Z,1006.40
2019-03-28T07:12:39.225Z,1006.39
2019-03-28T07:13:39.253Z,1006.42
2019-03-28T07:14:39.212Z,1006.37
2019-03-28T07:15:39.177Z,1006.39
2019-03-28T07:16:39.170Z,1006.42
2019-03-28T07:17:39.146Z,1006.27
2019-03-28T07:18:39.181Z,1006.29
2019-03-28T07:19:39.140Z,1006.35
2019-03-28T07:20:39.154Z,1006.36
2019-03-28T07:21:39.106Z,1006.32
2019-03-28T07:22:39.164Z,1006.31
2019-03-28T07:23:39.105Z,1006.32
2019-03-28T07:24:39.089Z,1006.33
2019-03-28T07:25:39.074Z,1006.31
2019-03-28T07:26:39.095Z,1006.30
2019-03-28T07:27:39.041Z,1006.32
2019-03-28T07:28:39.029Z,1006.25
2019-03-28T07:29:50.308Z,1006.30
2019-03-28T07:30:40.033Z,1006.36
2019-03-28T07:31:38.996Z,1006.27
2019-03-28T07:32:39.020Z,1006.33
2019-03-28T07:33:38.988Z,1006.26
2019-03-28T07:34:39.009Z,1006.27
2019-03-28T07:35:38.956Z,1006.27
2019-03-28T07:36:38.962Z,1006.30
2019-03-28T07:37:38.933Z,1006.36
2019-03-28T07:38:38.920Z,1006.29
2019-03-28T07:39:38.929Z,1006.30
2019-03-28T07:40:38.916Z,1006.28
2019-03-28T07:41:38.915Z,1006.36
2019-03-28T07:42:38.895Z,1006.27
2019-03-28T07:43:38.883Z,1006.31
2019-03-28T07:44:38.901Z,1006.27
2019-03-28T07:45:38.867Z,1006.24
2019-03-28T07:46:38.906Z,1006.24
2019-03-28T07:47:38.873Z,1006.29
2019-03-28T07:48:38.834Z,1006.26
2019-03-28T07:49:38.844Z,1006.24
2019-03-28T07:50:38.823Z,1006.26
2019-03-28T07:51:38.812Z,1006.24
2019-03-28T07:52:38.769Z,1006.22
2019-03-28T07:53:38.799Z,1006.21
2019-03-28T07:54:39.337Z,1006.21
2019-03-28T07:55:38.806Z,1006.23
2019-03-28T07:56:38.727Z,1006.20
2019-03-28T07:57:38.725Z,1006.18
2019-03-28T07:58:38.706Z,1006.14
2019-03-28T07:59:38.737Z,1006.11
2019-03-28T08:00:38.693Z,1006.12
2019-03-28T08:01:38.729Z,1006.08
2019-03-28T08:02:38.743Z,1006.07
2019-03-28T08:03:40.032Z,1006.03
2019-03-28T08:04:38.734Z,1006.10
2019-03-28T08:05:38.656Z,1006.06
2019-03-28T08:06:49.204Z,1006.08
2019-03-28T08:07:45.228Z,1006.04
2019-03-28T08:08:40.442Z,1006.06
2019-03-28T08:09:38.598Z,1006.14
2019-03-28T08:10:38.594Z,1006.04
2019-03-28T08:11:38.859Z,1006.04
2019-03-28T08:12:38.573Z,1006.09
2019-03-28T08:13:38.543Z,1006.10
2019-03-28T08:14:38.544Z,1006.13
2019-03-28T08:15:38.569Z,1006.08
2019-03-28T08:16:38.526Z,1006.07
2019-03-28T08:17:38.509Z,1006.08
2019-03-28T08:18:38.490Z,1006.12
2019-03-28T08:19:41.485Z,1006.08
2019-03-28T08:20:38.467Z,1006.07
2019-03-28T08:21:38.459Z,1006.06
2019-03-28T08:22:38.490Z,1006.09
2019-03-28T08:23:38.439Z,1006.17
2019-03-28T08:24:38.456Z,1006.09
2019-03-28T08:25:38.427Z,1006.17
2019-03-28T08:26:38.415Z,1006.13
2019-03-28T08:27:38.393Z,1006.06
2019-03-28T08:28:38.412Z,1006.02
2019-03-28T08:29:38.422Z,1006.03
2019-03-28T08:30:38.394Z,1006.02
2019-03-28T08:31:40.747Z,1006.00
2019-03-28T08:32:39.930Z,1005.98
2019-03-28T08:33:38.344Z,1005.98
2019-03-28T08:34:38.350Z,1005.99
2019-03-28T08:35:38.350Z,1005.95
2019-03-28T08:36:38.408Z,1005.94
2019-03-28T08:37:38.335Z,1005.94
2019-03-28T08:38:38.283Z,1005.96
2019-03-28T08:39:38.383Z,1006.01
2019-03-28T08:40:39.811Z,1005.85
2019-03-28T08:41:38.269Z,1005.88
2019-03-28T08:42:38.231Z,1005.94
2019-03-28T08:43:38.259Z,1005.91
2019-03-28T08:44:38.681Z,1005.93
2019-03-28T08:45:38.241Z,1005.86
2019-03-28T08:46:38.233Z,1005.90
2019-03-28T08:47:38.190Z,1005.83
2019-03-28T08:48:38.177Z,1005.80
2019-03-28T08:49:38.156Z,1005.79
2019-03-28T08:50:38.161Z,1005.78
2019-03-28T08:51:38.156Z,1005.81
2019-03-28T08:52:38.145Z,1005.71
2019-03-28T08:53:38.156Z,1005.74
2019-03-28T08:54:38.103Z,1005.79
2019-03-28T08:55:38.102Z,1005.66
2019-03-28T08:56:38.087Z,1005.71
2019-03-28T08:57:38.087Z,1005.69
2019-03-28T08:58:38.461Z,1005.61
2019-03-28T08:59:53.963Z,1005.63
2019-03-28T09:00:51.063Z,1005.62
2019-03-28T09:01:39.068Z,1005.63
2019-03-28T09:02:38.025Z,1005.63
2019-03-28T09:03:38.085Z,1005.65
2019-03-28T09:04:38.063Z,1005.62
2019-03-28T09:05:38.034Z,1005.67
2019-03-28T09:06:38.053Z,1005.60
2019-03-28T09:07:37.976Z,1005.64
2019-03-28T09:08:38.059Z,1005.65
2019-03-28T09:09:37.959Z,1005.61
2019-03-28T09:10:37.957Z,1005.55
2019-03-28T09:11:37.967Z,1005.59
2019-03-28T09:12:58.922Z,1005.53
2019-03-28T09:13:37.937Z,1005.51
2019-03-28T09:14:58.949Z,1005.52
2019-03-28T09:15:44.480Z,1005.44
2019-03-28T09:16:37.912Z,1005.46
2019-03-28T09:17:37.901Z,1005.50
2019-03-28T09:18:37.865Z,1005.50
2019-03-28T09:19:39.164Z,1005.53
2019-03-28T09:20:37.889Z,1005.45
2019-03-28T09:21:37.831Z,1005.45
2019-03-28T09:22:39.138Z,1005.49
2019-03-28T09:23:37.820Z,1005.46
2019-03-28T09:24:37.807Z,1005.44
2019-03-28T09:25:37.820Z,1005.46
2019-03-28T09:26:37.781Z,1005.32
2019-03-28T09:27:37.775Z,1005.38
2019-03-28T09:28:37.757Z,1005.34
2019-03-28T09:29:37.772Z,1005.28
2019-03-28T09:30:47.929Z,1005.27
2019-03-28T09:31:38.723Z,1005.25
2019-03-28T09:32:37.699Z,1005.24
2019-03-28T09:33:40.495Z,1005.31
2019-03-28T09:34:37.726Z,1005.37
2019-03-28T09:35:37.781Z,1005.29
2019-03-28T09:36:37.669Z,1005.31
2019-03-28T09:37:37.642Z,1005.28
2019-03-28T09:38:37.663Z,1005.25
2019-03-28T09:39:37.641Z,1005.26
2019-03-28T09:40:37.640Z,1005.20
2019-03-28T09:41:37.642Z,1005.22
2019-03-28T09:42:37.654Z,1005.20
2019-03-28T09:43:37.600Z,1005.17
2019-03-28T09:44:37.577Z,1005.18
2019-03-28T09:45:37.618Z,1005.20
2019-03-28T09:46:37.598Z,1005.14
2019-03-28T09:47:37.534Z,1005.13
2019-03-28T09:48:37.532Z,1005.07
2019-03-28T09:49:37.524Z,1005.10
2019-03-28T09:50:37.553Z,1005.09
2019-03-28T09:51:37.542Z,1005.16
2019-03-28T09:52:37.486Z,1005.04
2019-03-28T09:53:37.470Z,1005.03
2019-03-28T09:54:37.477Z,1005.06
2019-03-28T09:55:37.524Z,1004.98
2019-03-28T09:56:37.451Z,1004.91
2019-03-28T09:57:37.455Z,1004.96
2019-03-28T09:58:37.435Z,1004.96
2019-03-28T09:59:37.413Z,1005.04
2019-03-28T10:00:37.508Z,1005.10
2019-03-28T10:01:37.387Z,1005.00
2019-03-28T10:02:37.378Z,1005.00
2019-03-28T10:03:37.397Z,1005.01
2019-03-28T10:04:37.423Z,1005.03
2019-03-28T10:05:38.253Z,1005.00
2019-03-28T10:06:37.344Z,1004.99
2019-03-28T10:07:38.598Z,1005.02
2019-03-28T10:08:37.324Z,1004.98
2019-03-28T10:09:37.390Z,1004.99
2019-03-28T10:10:37.293Z,1004.98
2019-03-28T10:11:37.356Z,1005.11
2019-03-28T10:12:37.287Z,1004.94
2019-03-28T10:13:37.278Z,1005.00
2019-03-28T10:14:37.248Z,1004.98
2019-03-28T10:15:37.414Z,1005.00
2019-03-28T10:16:40.255Z,1004.91
2019-03-28T10:17:37.243Z,1004.91
2019-03-28T10:18:37.237Z,1004.86
2019-03-28T10:19:37.228Z,1004.93
2019-03-28T10:20:37.220Z,1004.89
2019-03-28T10:21:37.677Z,1004.88
2019-03-28T10:22:37.172Z,1004.90
2019-03-28T10:23:39.698Z,1004.81
2019-03-28T10:24:37.159Z,1004.84
2019-03-28T10:25:37.166Z,1004.79
2019-03-28T10:26:37.282Z,1004.93
2019-03-28T10:27:37.151Z,1004.88
2019-03-28T10:28:37.103Z,1004.74
2019-03-28T10:29:37.114Z,1004.82
2019-03-28T10:30:37.121Z,1004.90
2019-03-28T10:31:37.095Z,1004.85
2019-03-28T10:32:37.115Z,1004.89
2019-03-28T10:33:37.059Z,1004.84
2019-03-28T10:34:37.079Z,1004.81
2019-03-28T10:35:37.058Z,1004.86
2019-03-28T10:36:37.046Z,1004.76
2019-03-28T10:37:37.051Z,1004.79
2019-03-28T10:38:37.034Z,1004.76
2019-03-28T10:39:37.089Z,1004.81
2019-03-28T10:40:37.007Z,1004.74
2019-03-28T10:41:39.730Z,1004.74
2019-03-28T10:42:36.970Z,1004.70
2019-03-28T10:43:36.960Z,1004.63
2019-03-28T10:44:36.955Z,1004.66
2019-03-28T10:45:36.977Z,1004.69
2019-03-28T10:46:36.989Z,1004.71
2019-03-28T10:47:36.918Z,1004.71
2019-03-28T10:48:36.944Z,1004.75
2019-03-28T10:49:36.938Z,1004.74
2019-03-28T10:50:42.504Z,1004.69
2019-03-28T10:51:37.919Z,1004.66
2019-03-28T10:52:36.895Z,1004.75
2019-03-28T10:53:36.868Z,1004.68
2019-03-28T10:54:36.887Z,1004.67
2019-03-28T10:55:36.840Z,1004.65
2019-03-28T10:56:50.817Z,1004.66
2019-03-28T10:57:37.814Z,1004.64
2019-03-28T10:58:36.820Z,1004.64
2019-03-28T10:59:36.829Z,1004.64
2019-03-28T11:00:36.794Z,1004.57
2019-03-28T11:01:49.035Z,1004.59
2019-03-28T11:02:38.730Z,1004.66
2019-03-28T11:03:36.753Z,1004.56
2019-03-28T11:04:36.773Z,1004.59
2019-03-28T11:05:36.732Z,1004.57
2019-03-28T11:06:36.754Z,1004.54
2019-03-28T11:07:36.702Z,1004.44
2019-03-28T11:08:36.825Z,1004.53
2019-03-28T11:09:36.696Z,1004.44
2019-03-28T11:10:36.671Z,1004.56
2019-03-28T11:11:36.676Z,1004.50
2019-03-28T11:12:36.650Z,1004.53
2019-03-28T11:13:36.638Z,1004.45
2019-03-28T11:14:36.648Z,1004.39
2019-03-28T11:15:36.624Z,1004.47
2019-03-28T11:16:36.673Z,1004.33
2019-03-28T11:17:36.603Z,1004.34
2019-03-28T11:18:36.599Z,1004.45
2019-03-28T11:19:36.595Z,1004.38
2019-03-28T11:20:39.896Z,1004.39
2019-03-28T11:21:36.572Z,1004.39
2019-03-28T11:22:36.544Z,1004.31
2019-03-28T11:23:36.537Z,1004.32
2019-03-28T11:24:36.531Z,1004.30
2019-03-28T11:25:36.508Z,1004.40
2019-03-28T11:26:36.538Z,1004.32
2019-03-28T11:27:36.535Z,1004.33
2019-03-28T11:28:36.485Z,1004.23
2019-03-28T11:29:36.490Z,1004.22
2019-03-28T11:30:36.481Z,1004.24
2019-03-28T11:31:46.200Z,1004.17
2019-03-28T11:32:37.439Z,1004.25
2019-03-28T11:33:36.473Z,1004.23
2019-03-28T11:34:36.437Z,1004.24
2019-03-28T11:35:36.470Z,1004.19
2019-03-28T11:36:36.439Z,1004.27
2019-03-28T11:37:36.393Z,1004.05
2019-03-28T11:38:36.394Z,1004.28
2019-03-28T11:39:36.364Z,1004.27
2019-03-28T11:40:36.354Z,1004.21
2019-03-28T11:41:36.385Z,1004.14
2019-03-28T11:42:36.395Z,1004.17
2019-03-28T11:43:36.349Z,1004.14
2019-03-28T11:44:36.331Z,1004.12
2019-03-28T11:45:36.327Z,1004.10
2019-03-28T11:46:36.288Z,1004.10
2019-03-28T11:47:36.327Z,1004.07
2019-03-28T11:48:36.315Z,1004.11
2019-03-28T11:49:36.260Z,1004.08
2019-03-28T11:50:36.279Z,1004.07
2019-03-28T11:51:36.575Z,1004.16
2019-03-28T11:52:36.270Z,1004.04
2019-03-28T11:53:36.230Z,1004.14
2019-03-28T11:54:36.288Z,1004.07
2019-03-28T11:55:36.226Z,1004.05
2019-03-28T11:56:36.196Z,1004.01
2019-03-28T11:57:36.205Z,1004.02
2019-03-28T11:58:36.170Z,1003.98
2019-03-28T11:59:36.160Z,1003.93
2019-03-28T12:00:36.157Z,1003.93
2019-03-28T12:01:36.147Z,1003.96
2019-03-28T12:02:36.141Z,1003.94
2019-03-28T12:03:36.146Z,1003.88
2019-03-28T12:04:38.660Z,1003.92
2019-03-28T12:05:36.111Z,1003.81